Time;durP1;ratioP1;P1;durP2;ratioP2;P2;SDS_P1;SDS_P2;PMS_P1;PMS_P2;Temp;Humidity;BMP_temperature;BMP_pressure;BME280_temperature;BME280_humidity;BME280_pressure;Samples;Min_cycle;Max_cycle;Signal;HPM_P1;HPM_P2
2022/09/06 00:00:28;;;;;;;0.98;0.93;;;;;;;18.96;64.78;99779.97;4443543;32;34650;-80
2022/09/06 00:02:56;;;;;;;0.50;0.50;;;;;;;19.10;64.73;99777.66;4438957;32;36113;-80
2022/09/06 00:05:24;;;;;;;3.00;0.70;;;;;;;18.72;65.96;99776.44;4453132;32;34373;-80
2022/09/06 00:07:52;;;;;;;0.73;0.70;;;;;;;18.36;66.41;99775.09;4441756;32;33407;-80
2022/09/06 00:10:21;;;;;;;0.55;0.45;;;;;;;18.68;66.11;99778.31;4453766;32;33826;-80
2022/09/06 00:12:48;;;;;;;0.77;0.77;;;;;;;18.67;65.65;99774.00;4447085;32;34943;-80
2022/09/06 00:15:17;;;;;;;0.40;0.40;;;;;;;18.48;66.57;99772.94;4439494;32;34469;-80
2022/09/06 00:17:45;;;;;;;0.40;0.40;;;;;;;18.07;67.46;99762.06;4443575;32;33469;-80
2022/09/06 00:20:14;;;;;;;0.75;0.50;;;;;;;18.14;68.05;99775.00;4452833;32;33871;-80
2022/09/06 00:22:42;;;;;;;0.30;0.30;;;;;;;18.23;67.71;99771.19;4444477;32;34594;-80
2022/09/06 00:25:10;;;;;;;0.75;0.57;;;;;;;17.69;69.53;99777.38;4439522;32;34961;-80
2022/09/06 00:27:38;;;;;;;0.60;0.60;;;;;;;18.04;68.10;99778.00;4443457;32;33459;-81
2022/09/06 00:30:11;;;;;;;0.75;0.75;;;;;;;17.98;68.56;99779.06;4454947;32;34824;-80
2022/09/06 00:32:40;;;;;;;0.47;0.40;;;;;;;17.52;69.22;99780.56;4451793;32;34725;-80
2022/09/06 00:35:07;;;;;;;0.30;0.30;;;;;;;17.74;68.22;99783.38;4439460;32;34383;-80
2022/09/06 00:37:35;;;;;;;0.35;0.35;;;;;;;17.66;69.22;99778.34;4438889;32;33328;-80
2022/09/06 00:40:04;;;;;;;0.30;0.30;;;;;;;17.65;68.70;99781.00;4438586;32;34075;-80
2022/09/06 00:42:32;;;;;;;0.80;0.80;;;;;;;17.65;69.59;99778.38;4442274;32;35196;-80
2022/09/06 00:45:00;;;;;;;0.80;0.60;;;;;;;17.61;69.65;99775.88;4453677;32;34377;-80
2022/09/06 00:47:29;;;;;;;0.50;0.50;;;;;;;17.53;69.87;99767.34;4449449;32;34373;-80
2022/09/06 00:49:58;;;;;;;0.40;0.40;;;;;;;17.47;70.28;99761.41;4438103;32;34695;-80
2022/09/06 00:52:27;;;;;;;0.20;0.20;;;;;;;17.28;70.82;99767.28;4437646;32;35945;-81
2022/09/06 00:54:55;;;;;;;0.70;0.70;;;;;;;16.91;72.46;99775.44;4443212;32;34388;-80
2022/09/06 00:57:26;;;;;;;0.62;0.62;;;;;;;17.22;70.79;99767.47;4450558;32;33369;-80
2022/09/06 00:59:54;;;;;;;0.50;0.50;;;;;;;17.39;70.46;99775.69;4439317;32;33787;-80
2022/09/06 01:02:22;;;;;;;0.73;0.73;;;;;;;17.20;71.13;99774.53;4438314;32;35124;-80
2022/09/06 01:04:51;;;;;;;0.40;0.40;;;;;;;17.37;70.57;99777.50;4425623;32;34278;-81
2022/09/06 01:07:50;;;;;;;0.90;0.82;;;;;;;16.84;72.17;99772.97;4438752;32;34354;-80
2022/09/06 01:10:50;;;;;;;1.35;0.60;;;;;;;16.62;74.43;99764.84;4438704;32;33975;-80
2022/09/06 01:14:05;;;;;;;0.40;0.40;;;;;;;17.05;72.74;99765.37;4445809;32;35089;-80
2022/09/06 01:16:34;;;;;;;1.17;0.85;;;;;;;17.18;71.70;99769.31;4412574;32;34512;-80
2022/09/06 01:19:35;;;;;;;0.60;0.60;;;;;;;17.12;71.62;99763.38;4453138;32;33314;-80
2022/09/06 01:22:28;;;;;;;1.05;0.68;;;;;;;16.62;73.92;99766.59;4438008;32;33999;-80
2022/09/06 01:25:20;;;;;;;1.12;0.55;;;;;;;17.14;72.34;99761.59;4437907;32;35867;-80
2022/09/06 01:28:27;;;;;;;1.08;1.00;;;;;;;16.56;75.15;99766.78;4438555;32;34663;-81
2022/09/06 01:31:23;;;;;;;0.62;0.47;;;;;;;16.23;77.27;99764.16;4441250;32;34217;-80
2022/09/06 01:34:06;;;;;;;0.32;0.32;;;;;;;16.78;74.47;99762.63;4437378;32;33109;-80
2022/09/06 01:36:43;;;;;;;0.30;0.30;;;;;;;16.88;74.10;99757.97;4438943;32;34902;-80
2022/09/06 01:39:33;;;;;;;0.30;0.30;;;;;;;16.91;74.25;99763.16;4438468;32;34504;-80
2022/09/06 01:42:12;;;;;;;0.68;0.68;;;;;;;17.03;71.98;99762.78;4437124;32;34198;-80
2022/09/06 01:44:43;;;;;;;0.77;0.77;;;;;;;17.32;72.02;99765.41;4438794;32;33441;-80
2022/09/06 01:47:14;;;;;;;0.57;0.57;;;;;;;17.53;71.36;99762.09;4438928;32;35127;-80
2022/09/06 01:50:17;;;;;;;0.50;0.50;;;;;;;16.97;73.81;99755.06;4436939;32;34285;-80
2022/09/06 01:53:09;;;;;;;0.70;0.70;;;;;;;17.24;72.73;99761.25;4438115;32;34101;-80
2022/09/06 01:56:05;;;;;;;0.40;0.40;;;;;;;16.93;73.93;99766.59;4438838;32;34858;-80
2022/09/06 01:58:45;;;;;;;0.37;0.37;;;;;;;17.46;71.06;99757.94;4438224;32;35081;-80
2022/09/06 02:01:20;;;;;;;1.33;1.12;;;;;;;17.76;69.45;99753.41;4445067;32;34535;-80
2022/09/06 02:03:51;;;;;;;0.35;0.35;;;;;;;17.54;70.70;99760.31;4444008;32;33416;-80
2022/09/06 02:06:40;;;;;;;0.85;0.85;;;;;;;17.07;72.28;99754.78;4438569;32;34702;-80
2022/09/06 02:09:12;;;;;;;0.50;0.50;;;;;;;17.25;72.07;99762.97;4437138;32;35130;-80
2022/09/06 02:11:45;;;;;;;1.58;0.80;;;;;;;17.25;72.58;99760.31;4437365;32;34419;-81
2022/09/06 02:14:18;;;;;;;1.00;1.00;;;;;;;17.48;71.57;99753.47;4436330;32;33298;-81
2022/09/06 02:16:47;;;;;;;0.30;0.30;;;;;;;17.64;70.88;99748.56;4452174;32;33371;-80
2022/09/06 02:19:38;;;;;;;0.65;0.65;;;;;;;16.60;75.01;99748.22;4440818;32;35055;-80
2022/09/06 02:22:09;;;;;;;0.62;0.62;;;;;;;17.15;72.96;99751.00;4437058;32;34188;-80
2022/09/06 02:24:39;;;;;;;0.30;0.30;;;;;;;17.85;69.53;99748.75;4437031;32;33089;-80
2022/09/06 02:27:07;;;;;;;0.52;0.52;;;;;;;17.22;71.73;99746.41;4437213;32;34823;-80
2022/09/06 02:29:35;;;;;;;1.00;0.80;;;;;;;16.61;75.44;99746.47;4439208;32;35056;-80
2022/09/06 02:32:10;;;;;;;0.60;0.60;;;;;;;16.52;74.58;99750.22;4437702;32;33981;-80
2022/09/06 02:34:42;;;;;;;0.62;0.62;;;;;;;16.92;73.41;99738.53;4437892;32;34294;-80
2022/09/06 02:37:11;;;;;;;0.82;0.82;;;;;;;16.78;73.60;99745.97;4437162;32;34834;-80
2022/09/06 02:39:39;;;;;;;0.50;0.50;;;;;;;17.52;70.81;99743.69;4423643;32;34396;-79
2022/09/06 02:42:12;;;;;;;0.70;0.70;;;;;;;16.75;73.08;99736.41;4436941;32;34402;-80
2022/09/06 02:44:40;;;;;;;0.82;0.82;;;;;;;17.51;70.62;99742.00;4436877;32;34187;-80
2022/09/06 02:47:08;;;;;;;0.68;0.68;;;;;;;17.39;70.92;99749.37;4452060;32;33884;-80
2022/09/06 02:49:36;;;;;;;0.28;0.28;;;;;;;17.62;70.04;99745.97;4439636;32;35025;-80
2022/09/06 02:52:04;;;;;;;0.50;0.50;;;;;;;17.48;70.31;99739.44;4436663;32;34416;-81
2022/09/06 02:54:32;;;;;;;0.43;0.43;;;;;;;17.23;70.71;99743.72;4438380;32;33502;-80
2022/09/06 02:57:00;;;;;;;1.15;1.05;;;;;;;17.37;70.80;99745.06;4450798;32;33061;-81
2022/09/06 02:59:28;;;;;;;0.65;0.57;;;;;;;16.73;73.46;99739.97;4451670;32;35007;-80
2022/09/06 03:01:56;;;;;;;0.60;0.60;;;;;;;16.77;72.83;99741.63;4436185;32;32923;-81
2022/09/06 03:04:23;;;;;;;0.85;0.55;;;;;;;17.35;70.94;99734.59;4439791;32;34108;-80
2022/09/06 03:06:52;;;;;;;0.55;0.55;;;;;;;17.33;70.73;99738.16;4439001;32;34387;-80
2022/09/06 03:09:19;;;;;;;0.88;0.88;;;;;;;17.18;71.31;99729.84;4439570;32;35094;-80
2022/09/06 03:11:47;;;;;;;0.35;0.35;;;;;;;16.53;73.83;99735.31;4440145;32;35199;-80
2022/09/06 03:14:15;;;;;;;1.05;0.95;;;;;;;16.71;73.23;99734.75;4439502;32;34239;-80
2022/09/06 03:16:43;;;;;;;0.73;0.60;;;;;;;17.20;71.51;99730.66;4440060;32;33932;-81
2022/09/06 03:19:11;;;;;;;0.30;0.30;;;;;;;17.34;70.06;99729.38;4438957;32;35981;-80
2022/09/06 03:21:39;;;;;;;1.85;1.08;;;;;;;17.05;70.91;99731.16;4439933;32;34297;-80
2022/09/06 03:24:07;;;;;;;0.77;0.68;;;;;;;16.57;72.95;99731.69;4439575;32;34257;-80
2022/09/06 03:26:35;;;;;;;0.62;0.62;;;;;;;16.36;72.75;99734.03;4441537;32;34798;-80
2022/09/06 03:29:03;;;;;;;0.37;0.37;;;;;;;16.83;70.94;99731.78;4443418;32;34952;-80
2022/09/06 03:31:31;;;;;;;0.35;0.32;;;;;;;17.14;69.04;99732.66;4438092;32;34465;-81
2022/09/06 03:33:59;;;;;;;0.37;0.37;;;;;;;17.32;68.16;99728.56;4439535;32;33463;-81
2022/09/06 03:36:28;;;;;;;0.82;0.65;;;;;;;17.39;67.39;99737.97;4444770;32;34708;-79
2022/09/06 03:38:57;;;;;;;0.82;0.82;;;;;;;17.66;65.97;99735.34;4446611;32;34972;-80
2022/09/06 03:41:24;;;;;;;1.27;0.77;;;;;;;17.81;65.26;99733.06;4446801;32;35080;-78
2022/09/06 03:43:53;;;;;;;0.30;0.30;;;;;;;17.67;65.80;99732.66;4446983;32;32963;-79
2022/09/06 03:46:20;;;;;;;1.00;0.50;;;;;;;18.05;63.34;99737.56;4446456;32;33797;-78
2022/09/06 03:48:48;;;;;;;0.77;0.73;;;;;;;17.77;64.45;99738.47;4445148;32;35049;-82
2022/09/06 03:51:16;;;;;;;0.88;0.82;;;;;;;17.84;63.30;99744.38;4446779;32;35163;-79
2022/09/06 03:53:44;;;;;;;0.75;0.75;;;;;;;17.93;63.65;99741.47;4446796;32;33313;-80
2022/09/06 03:56:12;;;;;;;0.20;0.20;;;;;;;17.84;62.96;99739.97;4445842;32;33923;-80
2022/09/06 03:58:40;;;;;;;1.10;0.88;;;;;;;18.09;63.09;99740.03;4446179;32;35346;-80
2022/09/06 04:01:10;;;;;;;0.37;0.37;;;;;;;17.83;63.55;99747.97;4447042;32;35180;-80
2022/09/06 04:03:39;;;;;;;1.15;1.05;;;;;;;18.13;63.50;99746.06;4444613;32;33381;-80
2022/09/06 04:06:07;;;;;;;0.75;0.75;;;;;;;18.43;62.39;99743.25;4445110;32;33988;-80
2022/09/06 04:08:37;;;;;;;0.32;0.32;;;;;;;18.23;62.39;99744.81;4443861;32;34953;-81
2022/09/06 04:11:06;;;;;;;0.30;0.30;;;;;;;18.35;61.08;99735.59;4445388;32;33725;-80
2022/09/06 04:13:34;;;;;;;0.30;0.30;;;;;;;18.21;62.09;99740.50;4445192;32;34476;-80
2022/09/06 04:16:04;;;;;;;6.70;1.25;;;;;;;18.13;61.56;99740.78;4445259;32;34876;-79
2022/09/06 04:18:32;;;;;;;1.25;0.73;;;;;;;18.04;61.91;99736.69;4445712;32;35273;-79
2022/09/06 04:21:00;;;;;;;0.47;0.47;;;;;;;18.05;61.53;99735.78;4454818;32;35417;-79
2022/09/06 04:23:28;;;;;;;1.40;1.30;;;;;;;18.29;60.44;99747.22;4440178;32;34326;-79
2022/09/06 04:25:57;;;;;;;0.30;0.30;;;;;;;18.54;60.21;99741.06;4439375;32;34081;-81
2022/09/06 04:28:26;;;;;;;0.40;0.40;;;;;;;18.66;59.09;99743.25;4439775;32;35866;-80
2022/09/06 04:30:59;;;;;;;0.45;0.45;;;;;;;18.35;60.08;99746.12;4439317;32;34383;-80
2022/09/06 04:33:33;;;;;;;0.30;0.30;;;;;;;18.33;60.14;99756.72;4442865;32;33538;-80
2022/09/06 04:36:03;;;;;;;0.65;0.60;;;;;;;18.56;58.57;99755.94;4439248;32;33825;-80
2022/09/06 04:38:35;;;;;;;1.27;0.95;;;;;;;18.18;59.99;99749.41;4437741;32;35159;-80
2022/09/06 04:41:04;;;;;;;0.62;0.62;;;;;;;18.45;60.06;99741.41;4439348;32;34371;-80
2022/09/06 04:43:32;;;;;;;1.70;0.65;;;;;;;18.33;59.95;99743.56;4441123;32;33545;-79
2022/09/06 04:46:12;;;;;;;0.88;0.50;;;;;;;17.91;61.07;99746.81;4454692;32;34832;-80
2022/09/06 04:48:41;;;;;;;0.40;0.40;;;;;;;18.42;60.33;99746.78;4453031;32;35803;-80
2022/09/06 04:51:08;;;;;;;0.37;0.37;;;;;;;18.49;59.45;99737.72;4454684;32;34226;-80
2022/09/06 04:53:36;;;;;;;0.52;0.52;;;;;;;18.49;59.81;99737.72;4449317;32;33577;-80
2022/09/06 04:56:05;;;;;;;0.30;0.30;;;;;;;18.09;60.77;99739.16;4438442;32;33864;-80
2022/09/06 04:58:33;;;;;;;1.35;1.25;;;;;;;18.54;59.21;99741.06;4425104;32;35913;-80
2022/09/06 05:01:00;;;;;;;0.15;0.15;;;;;;;18.25;60.22;99737.72;4438250;32;34312;-79
2022/09/06 05:03:28;;;;;;;0.40;0.40;;;;;;;18.32;60.14;99731.31;4439056;32;34322;-79
2022/09/06 05:06:09;;;;;;;0.20;0.20;;;;;;;18.91;58.15;99729.16;4439214;32;33991;-78
2022/09/06 05:08:41;;;;;;;0.62;0.62;;;;;;;18.68;57.92;99738.75;4438934;32;34953;-77
2022/09/06 05:11:10;;;;;;;0.68;0.68;;;;;;;18.87;57.65;99733.69;4439398;32;35269;-78
2022/09/06 05:13:38;;;;;;;0.75;0.75;;;;;;;18.97;57.54;99744.75;4437449;32;32971;-78
2022/09/06 05:16:07;;;;;;;0.85;0.80;;;;;;;18.97;56.47;99739.47;4438507;32;34018;-78
2022/09/06 05:18:34;;;;;;;0.25;0.25;;;;;;;18.94;57.25;99734.31;4438706;32;35906;-78
2022/09/06 05:21:02;;;;;;;0.75;0.75;;;;;;;19.22;56.08;99738.47;4439140;32;34312;-78
2022/09/06 05:23:30;;;;;;;0.75;0.75;;;;;;;19.64;55.53;99741.19;4438259;32;33360;-78
2022/09/06 05:25:58;;;;;;;1.85;1.08;;;;;;;19.63;54.41;99742.09;4441012;32;34754;-79
2022/09/06 05:28:26;;;;;;;7.18;1.58;;;;;;;20.15;54.41;99741.66;4446761;32;35226;-80
2022/09/06 05:31:12;;;;;;;0.55;0.47;;;;;;;19.86;52.32;99738.50;4438836;32;34347;-80
2022/09/06 05:33:40;;;;;;;0.70;0.70;;;;;;;19.99;53.04;99740.63;4447766;32;33446;-80
2022/09/06 05:36:08;;;;;;;0.40;0.40;;;;;;;19.75;55.24;99743.41;4454450;32;34858;-80
2022/09/06 05:38:36;;;;;;;0.60;0.35;;;;;;;20.61;52.90;99744.03;4451452;32;35141;-79
2022/09/06 05:41:04;;;;;;;1.25;1.02;;;;;;;21.00;51.97;99738.72;4438792;32;35050;-80
2022/09/06 05:43:32;;;;;;;3.10;2.00;;;;;;;21.40;49.20;99739.44;4436247;32;33744;-83
2022/09/06 05:46:00;;;;;;;0.90;0.90;;;;;;;20.58;51.05;99744.19;4452856;32;34690;-83
2022/09/06 05:48:29;;;;;;;0.60;0.60;;;;;;;20.96;50.67;99739.78;4440586;32;35801;-79
2022/09/06 05:51:07;;;;;;;2.27;2.07;;;;;;;21.26;51.56;99746.34;4426603;32;348359;-84
2022/09/06 05:53:38;;;;;;;0.57;0.57;;;;;;;22.02;50.67;99741.66;4439189;32;34677;-80
2022/09/06 05:56:07;;;;;;;0.30;0.30;;;;;;;21.55;50.23;99742.31;4453975;32;34096;-80
2022/09/06 05:58:37;;;;;;;1.55;1.02;;;;;;;21.78;48.37;99747.31;4444005;32;35767;-80
2022/09/06 06:01:21;;;;;;;0.57;0.57;;;;;;;21.34;49.24;99744.19;4437621;32;35179;-78
2022/09/06 06:03:57;;;;;;;0.60;0.60;;;;;;;21.57;49.92;99748.38;4437145;32;33448;-79
2022/09/06 06:06:27;;;;;;;1.15;0.88;;;;;;;21.87;49.03;99742.47;4438664;32;34035;-79
2022/09/06 06:08:55;;;;;;;0.20;0.20;;;;;;;21.75;48.69;99744.81;4437918;32;35358;-80
2022/09/06 06:11:24;;;;;;;1.12;0.93;;;;;;;22.35;46.45;99748.84;4437518;32;34682;-79
2022/09/06 06:13:52;;;;;;;0.20;0.20;;;;;;;22.23;47.73;99738.84;4438157;32;33398;-79
2022/09/06 06:16:22;;;;;;;0.77;0.77;;;;;;;22.07;46.77;99739.66;4439412;32;33625;-82
2022/09/06 06:18:50;;;;;;;0.40;0.40;;;;;;;22.14;46.97;99741.03;4448557;32;34974;-81
2022/09/06 06:21:27;;;;;;;0.62;0.62;;;;;;;23.13;45.82;99742.91;4448200;32;34440;-80
2022/09/06 06:23:59;;;;;;;0.73;0.73;;;;;;;23.07;46.13;99744.97;4435606;32;33336;-81
2022/09/06 06:26:30;;;;;;;0.60;0.60;;;;;;;23.17;44.02;99745.31;4449341;32;33757;-79
2022/09/06 06:29:01;;;;;;;1.27;1.17;;;;;;;23.56;44.26;99737.75;4452929;32;35015;-80
2022/09/06 06:31:32;;;;;;;0.82;0.82;;;;;;;23.46;43.90;99742.78;4449852;32;34454;-80
2022/09/06 06:34:02;;;;;;;0.73;0.73;;;;;;;22.70;44.89;99751.41;4446743;32;34263;-81
2022/09/06 06:36:32;;;;;;;4.55;0.70;;;;;;;23.00;43.21;99740.03;4438218;32;34731;-81
2022/09/06 06:39:03;;;;;;;0.20;0.20;;;;;;;23.64;42.54;99740.84;4447108;32;34143;-81
2022/09/06 06:41:32;;;;;;;0.70;0.70;;;;;;;24.16;41.03;99747.53;4445418;32;34749;-82
2022/09/06 06:44:01;;;;;;;0.40;0.40;;;;;;;24.21;42.87;99749.00;4444888;32;33509;-82
2022/09/06 06:46:35;;;;;;;0.28;0.28;;;;;;;24.29;41.07;99743.19;4445294;32;33871;-82
2022/09/06 06:49:03;;;;;;;0.57;0.57;;;;;;;24.54;40.72;99753.22;4444288;32;33853;-82
2022/09/06 06:51:35;;;;;;;0.73;0.73;;;;;;;24.89;40.21;99752.81;4448445;32;34380;-82
2022/09/06 06:54:04;;;;;;;0.85;0.85;;;;;;;24.41;40.72;99757.56;4444997;32;33801;-82
2022/09/06 06:56:35;;;;;;;1.90;1.35;;;;;;;24.77;41.13;99770.41;4444865;32;34785;-82
2022/09/06 06:59:05;;;;;;;1.55;1.02;;;;;;;25.03;40.06;99759.94;4438470;32;34282;-82
2022/09/06 07:01:34;;;;;;;2.25;0.85;;;;;;;25.05;38.90;99760.69;4439088;32;33556;-82
2022/09/06 07:04:04;;;;;;;0.30;0.30;;;;;;;25.60;39.49;99758.91;4439547;32;33462;-82
2022/09/06 07:06:45;;;;;;;0.77;0.77;;;;;;;24.75;39.55;99761.66;4438525;32;34006;-82
2022/09/06 07:09:35;;;;;;;0.52;0.52;;;;;;;24.32;39.50;99769.62;4439455;32;34730;-83
2022/09/06 07:12:23;;;;;;;0.62;0.62;;;;;;;24.15;40.75;99770.66;4439978;32;35049;-82
2022/09/06 07:14:52;;;;;;;0.75;0.75;;;;;;;24.89;39.15;99770.63;4439182;32;33530;-83
2022/09/06 07:17:20;;;;;;;1.30;1.20;;;;;;;25.11;39.46;99772.75;4439563;32;34860;-82
2022/09/06 07:19:48;;;;;;;1.02;0.93;;;;;;;25.44;39.83;99769.72;4439226;32;34479;-82
2022/09/06 07:22:37;;;;;;;1.37;0.73;;;;;;;24.91;42.12;99774.88;4428570;32;33776;-82
2022/09/06 07:25:07;;;;;;;0.65;0.60;;;;;;;25.70;37.53;99780.50;4444286;32;33514;-82
2022/09/06 07:27:34;;;;;;;0.65;0.65;;;;;;;25.73;37.73;99778.47;4440258;32;32364;-82
2022/09/06 07:30:18;;;;;;;1.62;1.42;;;;;;;25.81;38.09;99775.28;4444973;32;35155;-82
2022/09/06 07:32:47;;;;;;;1.00;1.00;;;;;;;25.45;38.08;99782.13;4444180;32;34457;-83
2022/09/06 07:35:15;;;;;;;0.80;0.50;;;;;;;25.51;38.60;99776.38;4443485;32;33568;-82
2022/09/06 07:37:50;;;;;;;0.85;0.80;;;;;;;26.07;40.02;99778.06;4440097;32;33920;-82
2022/09/06 07:40:19;;;;;;;1.75;1.30;;;;;;;25.26;38.04;99769.12;4446486;32;35036;-83
2022/09/06 07:42:47;;;;;;;0.88;0.70;;;;;;;25.52;36.56;99775.44;4447147;32;34430;-81
2022/09/06 07:45:15;;;;;;;3.35;0.85;;;;;;;25.57;38.39;99774.25;4441255;32;32289;-81
2022/09/06 07:47:44;;;;;;;2.00;1.15;;;;;;;25.70;37.00;99775.16;4440046;32;34076;-81
2022/09/06 07:50:28;;;;;;;1.90;1.17;;;;;;;26.01;37.06;99776.62;4447887;32;35325;-81
2022/09/06 07:53:11;;;;;;;0.70;0.70;;;;;;;25.91;37.71;99776.38;4437004;32;35291;-81
2022/09/06 07:55:46;;;;;;;0.80;0.80;;;;;;;27.25;35.19;99771.53;4436762;32;33572;-81
2022/09/06 07:58:14;;;;;;;0.30;0.30;;;;;;;26.53;37.61;99774.84;4439208;32;34197;-81
2022/09/06 08:00:42;;;;;;;1.23;1.05;;;;;;;25.76;40.58;99774.75;4438955;32;35889;-83
2022/09/06 08:03:10;;;;;;;0.40;0.32;;;;;;;25.53;37.54;99781.59;4443001;32;34512;-83
2022/09/06 08:05:38;;;;;;;0.65;0.40;;;;;;;25.80;37.30;99781.59;4439042;32;33518;-80
2022/09/06 08:08:26;;;;;;;1.05;1.05;;;;;;;25.61;40.28;99786.44;4439314;32;33927;-87
2022/09/06 08:11:15;;;;;;;0.20;0.20;;;;;;;25.21;39.55;99778.34;4453996;32;35001;-83
2022/09/06 08:13:43;;;;;;;0.75;0.73;;;;;;;25.96;37.45;99785.91;4448232;32;34442;-83
2022/09/06 08:16:11;;;;;;;2.83;1.48;;;;;;;26.39;38.27;99777.66;4438390;32;34160;-82
2022/09/06 08:18:39;;;;;;;0.73;0.73;;;;;;;27.00;39.94;99767.09;4439390;32;33822;-82
2022/09/06 08:21:12;;;;;;;0.93;0.93;;;;;;;27.03;36.90;99773.09;4438991;32;34988;-82
2022/09/06 08:23:44;;;;;;;0.50;0.50;;;;;;;27.71;38.74;99767.31;4451795;32;34513;-82
2022/09/06 08:26:14;;;;;;;0.75;0.68;;;;;;;28.43;32.76;99761.78;4440334;32;34315;-81
2022/09/06 08:28:42;;;;;;;1.30;1.17;;;;;;;27.93;36.27;99769.22;4442493;32;33963;-82
2022/09/06 08:31:15;;;;;;;0.45;0.45;;;;;;;27.52;36.89;99768.66;4438115;32;35685;-83
2022/09/06 08:33:43;;;;;;;7.62;2.53;;;;;;;27.56;37.34;99769.28;4439089;32;34471;-81
2022/09/06 08:36:12;;;;;;;1.48;0.93;;;;;;;27.38;35.06;99766.16;4439048;32;33361;-80
2022/09/06 08:38:40;;;;;;;0.47;0.47;;;;;;;28.24;37.56;99753.47;4437388;32;33753;-81
2022/09/06 08:41:24;;;;;;;1.08;1.02;;;;;;;28.37;38.00;99762.25;4438610;32;35033;-80
2022/09/06 08:44:04;;;;;;;0.50;0.50;;;;;;;29.05;35.78;99756.87;4438813;32;34481;-80
2022/09/06 08:47:06;;;;;;;0.98;0.98;;;;;;;28.43;35.55;99751.06;4441888;32;33531;-80
2022/09/06 08:50:00;;;;;;;0.70;0.60;;;;;;;28.06;34.40;99761.09;4449783;32;33953;-81
2022/09/06 08:52:47;;;;;;;0.40;0.40;;;;;;;28.31;34.03;99754.72;4437072;32;36064;-80
2022/09/06 08:56:10;;;;;;;1.08;0.98;;;;;;;29.64;34.37;99750.28;4438084;32;35096;-81
2022/09/06 08:59:06;;;;;;;0.73;0.70;;;;;;;30.24;32.67;99747.88;4437629;32;34184;-81
2022/09/06 09:01:55;;;;;;;1.17;1.08;;;;;;;29.49;32.93;99747.06;4437700;32;34744;-81
2022/09/06 09:04:26;;;;;;;0.55;0.55;;;;;;;28.96;32.96;99749.59;4437576;32;35097;-81
2022/09/06 09:06:59;;;;;;;0.50;0.50;;;;;;;29.27;33.03;99738.09;4444179;32;33742;-81
2022/09/06 09:09:29;;;;;;;0.40;0.40;;;;;;;29.62;32.93;99741.50;4438083;32;33497;-81
2022/09/06 09:11:58;;;;;;;4.95;0.90;;;;;;;29.57;32.43;99744.56;4444041;32;33793;-80
2022/09/06 09:14:34;;;;;;;0.50;0.50;;;;;;;29.28;32.81;99744.31;4448186;32;34235;-81
2022/09/06 09:17:06;;;;;;;0.43;0.43;;;;;;;29.95;33.23;99736.97;4446953;32;34323;-81
2022/09/06 09:19:36;;;;;;;0.93;0.60;;;;;;;30.10;32.65;99734.81;4435406;32;33347;-81
2022/09/06 09:22:04;;;;;;;0.68;0.68;;;;;;;30.69;32.07;99733.25;4441265;32;33156;-82
2022/09/06 09:24:32;;;;;;;2.50;1.37;;;;;;;31.14;33.05;99724.78;4443987;32;35153;-82
2022/09/06 09:27:09;;;;;;;0.43;0.43;;;;;;;30.81;32.95;99730.34;4430778;32;33556;-81
2022/09/06 09:29:53;;;;;;;0.82;0.73;;;;;;;30.98;31.83;99722.62;4445727;32;33351;-81
2022/09/06 09:32:44;;;;;;;1.80;1.58;;;;;;;29.52;33.27;99716.41;4445084;32;34933;-80
2022/09/06 09:35:31;;;;;;;0.60;0.50;;;;;;;29.47;34.49;99716.78;4445174;32;35040;-81
2022/09/06 09:38:05;;;;;;;;;;;;;;;29.17;34.99;99710.31;4451191;32;34994;-80
2022/09/06 09:40:41;;;;;;;0.50;0.50;;;;;;;31.51;31.75;99706.13;4444752;32;33312;-82
2022/09/06 09:43:22;;;;;;;0.50;0.50;;;;;;;29.90;32.87;99709.69;4446822;32;33565;-81
2022/09/06 09:46:11;;;;;;;0.70;0.70;;;;;;;29.53;34.46;99704.72;4454270;32;35839;-81
2022/09/06 09:48:40;;;;;;;0.28;0.28;;;;;;;30.08;33.18;99700.03;4452284;32;35199;-81
2022/09/06 09:51:17;;;;;;;0.65;0.65;;;;;;;30.41;31.51;99695.41;4442899;32;34236;-82
2022/09/06 09:53:56;;;;;;;1.90;1.33;;;;;;;30.35;31.52;99691.41;4451492;32;33732;-82
2022/09/06 09:56:29;;;;;;;1.23;0.68;;;;;;;30.58;32.23;99699.28;4454289;32;36057;-83
2022/09/06 09:58:57;;;;;;;0.52;0.52;;;;;;;31.88;32.20;99697.31;4443145;32;34572;-83
2022/09/06 10:01:30;;;;;;;0.55;0.55;;;;;;;32.08;32.52;99686.50;4438766;32;33366;-81
2022/09/06 10:04:07;;;;;;;1.42;1.02;;;;;;;30.56;32.87;99690.50;4445426;32;34060;-81
2022/09/06 10:07:14;;;;;;;1.02;0.80;;;;;;;30.33;31.58;99677.22;4454316;32;34861;-81
2022/09/06 10:09:45;;;;;;;0.57;0.57;;;;;;;31.92;32.19;99677.16;4438717;32;34500;-83
2022/09/06 10:12:27;;;;;;;0.52;0.52;;;;;;;31.38;31.34;99663.34;4439168;32;33628;-83
2022/09/06 10:14:56;;;;;;;2.20;1.37;;;;;;;32.10;31.68;99673.72;4439168;32;34069;-84
2022/09/06 10:17:33;;;;;;;0.75;0.75;;;;;;;32.30;33.36;99667.28;4439870;32;35972;-83
2022/09/06 10:20:09;;;;;;;0.93;0.88;;;;;;;32.18;29.00;99673.84;4453393;32;33923;-82
2022/09/06 10:22:56;;;;;;;1.10;0.73;;;;;;;31.07;32.49;99659.09;4455901;32;34210;-82
2022/09/06 10:25:38;;;;;;;1.17;1.00;;;;;;;31.18;32.43;99667.00;4439316;32;34495;-83
2022/09/06 10:28:32;;;;;;;2.33;1.58;;;;;;;31.24;31.31;99661.09;4441200;32;34949;-81
2022/09/06 10:31:25;;;;;;;2.15;1.35;;;;;;;31.25;32.63;99659.22;4450840;32;34405;-81
2022/09/06 10:34:31;;;;;;;4.47;1.27;;;;;;;31.50;31.23;99656.00;4438740;32;33430;-81
2022/09/06 10:37:11;;;;;;;0.30;0.30;;;;;;;32.94;33.17;99653.88;4440478;32;33908;-81
2022/09/06 10:39:52;;;;;;;0.60;0.45;;;;;;;32.36;29.88;99640.75;4439811;32;35132;-83
2022/09/06 10:42:52;;;;;;;1.02;0.80;;;;;;;31.88;31.69;99638.06;4426403;32;34504;-81
2022/09/06 10:45:27;;;;;;;0.62;0.62;;;;;;;31.84;32.86;99646.59;4439158;32;33499;-81
2022/09/06 10:47:55;;;;;;;;;;;;;;;31.58;31.96;99636.44;4438928;32;33948;-82
2022/09/06 10:50:55;;;;;;;1.35;0.95;;;;;;;31.95;31.52;99638.31;4440250;32;35412;-81
2022/09/06 10:53:29;;;;;;;0.37;0.37;;;;;;;30.94;32.88;99643.22;4439568;32;34449;-81
2022/09/06 10:56:03;;;;;;;1.35;0.60;;;;;;;31.54;31.45;99640.41;4440239;32;34387;-82
2022/09/06 10:58:39;;;;;;;0.50;0.50;;;;;;;31.66;31.19;99644.66;4442961;32;34863;-82
2022/09/06 11:01:32;;;;;;;1.00;1.00;;;;;;;32.11;31.27;99638.56;4439011;32;35063;-80
2022/09/06 11:04:01;;;;;;;0.40;0.40;;;;;;;32.73;32.08;99643.37;4438706;32;34284;-81
2022/09/06 11:06:44;;;;;;;0.37;0.37;;;;;;;30.87;33.75;99650.13;4440162;32;33537;-82
2022/09/06 11:09:28;;;;;;;0.10;0.10;;;;;;;32.51;30.77;99644.63;4446418;32;33957;-82
2022/09/06 11:12:00;;;;;;;0.37;0.37;;;;;;;32.22;30.67;99640.22;4454388;32;34764;-81
2022/09/06 11:14:29;;;;;;;0.57;0.57;;;;;;;31.30;35.98;99643.50;4444580;32;35205;-81
2022/09/06 11:17:03;;;;;;;0.65;0.60;;;;;;;31.83;31.71;99640.34;4438380;32;34279;-81
2022/09/06 11:19:40;;;;;;;0.37;0.37;;;;;;;32.60;29.86;99626.75;4439069;32;34363;-80
2022/09/06 11:22:23;;;;;;;0.73;0.70;;;;;;;31.96;33.02;99631.06;4437943;32;35816;-83
2022/09/06 11:25:07;;;;;;;1.37;1.27;;;;;;;32.03;31.13;99626.78;4438407;32;34319;-81
2022/09/06 11:27:37;;;;;;;1.05;0.73;;;;;;;32.23;29.89;99624.91;4438719;32;32727;-83
2022/09/06 11:30:06;;;;;;;0.40;0.40;;;;;;;32.69;29.68;99621.28;4451467;32;33886;-83
2022/09/06 11:32:37;;;;;;;0.50;0.50;;;;;;;31.14;34.20;99620.72;4454142;32;35879;-81
2022/09/06 11:35:08;;;;;;;0.20;0.20;;;;;;;31.05;32.03;99621.56;4443533;32;35277;-80
2022/09/06 11:37:41;;;;;;;1.00;1.00;;;;;;;31.05;33.35;99613.50;4440249;32;33524;-81
2022/09/06 11:40:22;;;;;;;1.23;0.77;;;;;;;31.21;33.46;99606.72;4452969;32;33966;-83
2022/09/06 11:42:54;;;;;;;0.22;0.22;;;;;;;30.69;33.32;99607.78;4454224;32;35996;-80
2022/09/06 11:45:48;;;;;;;1.35;0.90;;;;;;;30.83;34.26;99608.34;4439953;32;33234;-81
2022/09/06 11:48:56;;;;;;;0.40;0.40;;;;;;;30.52;34.84;99606.63;4439661;32;34307;-80
2022/09/06 11:51:37;;;;;;;0.43;0.40;;;;;;;30.68;31.99;99606.06;4413873;32;34860;-81
2022/09/06 11:54:16;;;;;;;0.57;0.57;;;;;;;30.66;35.33;99597.31;4439138;32;35006;-81
2022/09/06 11:56:52;;;;;;;0.98;0.93;;;;;;;32.22;32.30;99586.31;4438533;32;34977;-80
2022/09/06 11:59:35;;;;;;;0.40;0.40;;;;;;;32.18;31.60;99590.34;4438603;32;33597;-83
2022/09/06 12:02:06;;;;;;;2.65;1.67;;;;;;;30.90;32.55;99582.59;4438494;32;34037;-79
2022/09/06 12:05:02;;;;;;;1.05;0.95;;;;;;;31.19;33.11;99588.84;4442997;32;35144;-81
2022/09/06 12:07:34;;;;;;;0.40;0.40;;;;;;;30.58;34.41;99578.34;4453849;32;34503;-82